Time;durP1;ratioP1;P1;durP2;ratioP2;P2;SDS_P1;SDS_P2;PMS_P1;PMS_P2;Temp;Humidity;BMP_temperature;BMP_pressure;BME280_temperature;BME280_humidity;BME280_pressure;Samples;Min_cycle;Max_cycle;Signal;HPM_P1;HPM_P2
2022/08/09 00:00:13;;;;;;;6.32;4.37;;;;;;;;;;4401806;32;20224;-80
2022/08/09 00:02:39;;;;;;;7.47;4.47;;;;;;;;;;4402130;32;20709;-79
2022/08/09 00:05:05;;;;;;;5.45;4.45;;;;;;;;;;4402008;32;20226;-79
2022/08/09 00:07:31;;;;;;;8.85;4.47;;;;;;;;;;4401693;32;20312;-79
2022/08/09 00:09:56;;;;;;;6.32;4.00;;;;;;;;;;4401561;32;20285;-80
2022/08/09 00:12:23;;;;;;;11.07;3.72;;;;;;;;;;4401250;32;20222;-80
2022/08/09 00:14:49;;;;;;;8.43;4.12;;;;;;;;;;4401445;32;20206;-80
2022/08/09 00:17:15;;;;;;;6.93;4.78;;;;;;;;;;4401712;32;20304;-80
2022/08/09 00:19:41;;;;;;;6.70;4.60;;;;;;;;;;4401689;32;20304;-80
2022/08/09 00:22:07;;;;;;;8.43;4.28;;;;;;;;;;4401530;32;20225;-78
2022/08/09 00:24:32;;;;;;;8.43;4.45;;;;;;;;;;4401516;32;20198;-79
2022/08/09 00:26:59;;;;;;;9.23;4.78;;;;;;;;;;4401617;32;20229;-79
2022/08/09 00:29:26;;;;;;;6.15;4.53;;;;;;;;;;4401315;32;20209;-79
2022/08/09 00:31:52;;;;;;;5.82;4.50;;;;;;;;;;4401521;32;20402;-79
2022/08/09 00:34:18;;;;;;;7.32;5.55;;;;;;;;;;4401628;32;20206;-79
2022/08/09 00:36:43;;;;;;;6.62;4.95;;;;;;;;;;4401814;32;20361;-79
2022/08/09 00:39:10;;;;;;;7.43;4.47;;;;;;;;;;4401582;32;20247;-79
2022/08/09 00:41:36;;;;;;;10.50;4.82;;;;;;;;;;4401345;32;20248;-79
2022/08/09 00:44:03;;;;;;;11.45;4.82;;;;;;;;;;4401221;32;20230;-79
2022/08/09 00:46:29;;;;;;;9.32;5.10;;;;;;;;;;4400883;32;20221;-79
2022/08/09 00:48:54;;;;;;;11.68;5.65;;;;;;;;;;4401245;32;20566;-79
2022/08/09 00:51:22;;;;;;;13.35;4.85;;;;;;;;;;4401112;32;20240;-79
2022/08/09 00:53:49;;;;;;;7.18;4.50;;;;;;;;;;4401312;32;20248;-79
2022/08/09 00:56:17;;;;;;;7.47;3.70;;;;;;;;;;4400119;32;20834;-79
2022/08/09 00:58:42;;;;;;;13.98;4.30;;;;;;;;;;4400723;32;20225;-79
2022/08/09 01:01:17;;;;;;;4.32;3.55;;;;;;;;;;4398669;32;20539;-79
2022/08/09 01:04:05;;;;;;;6.62;4.32;;;;;;;;;;4399506;32;20237;-79
2022/08/09 01:07:15;;;;;;;11.45;4.93;;;;;;;;;;4399320;32;20787;-79
2022/08/09 01:09:53;;;;;;;5.80;4.65;;;;;;;;;;4397972;32;20304;-79
2022/08/09 01:12:36;;;;;;;7.93;3.80;;;;;;;;;;4401032;32;20775;-79
2022/08/09 01:15:12;;;;;;;8.05;4.37;;;;;;;;;;4400509;32;20244;-80
2022/08/09 01:17:39;;;;;;;6.85;3.87;;;;;;;;;;4401142;32;20323;-79
2022/08/09 01:20:20;;;;;;;7.25;4.15;;;;;;;;;;4400562;32;20765;-79
2022/08/09 01:23:04;;;;;;;6.20;3.97;;;;;;;;;;4385822;32;20206;-79
2022/08/09 01:25:41;;;;;;;4.93;4.20;;;;;;;;;;4385297;32;20325;-79
2022/08/09 01:28:11;;;;;;;4.60;3.90;;;;;;;;;;4388205;32;20235;-80
2022/08/09 01:30:39;;;;;;;5.57;3.45;;;;;;;;;;4400405;32;20225;-80
2022/08/09 01:33:07;;;;;;;4.18;3.37;;;;;;;;;;4400488;32;20217;-80
2022/08/09 01:36:07;;;;;;;8.60;4.78;;;;;;;;;;4400208;32;20290;-80
2022/08/09 01:38:36;;;;;;;5.53;3.65;;;;;;;;;;4397444;32;20267;-80
2022/08/09 01:41:06;;;;;;;5.82;3.72;;;;;;;;;;4400663;32;20201;-80
2022/08/09 01:43:34;;;;;;;6.90;4.57;;;;;;;;;;4400661;32;20220;-80
2022/08/09 01:46:00;;;;;;;6.37;4.62;;;;;;;;;;4400042;32;20222;-80
2022/08/09 01:48:30;;;;;;;7.40;5.28;;;;;;;;;;4400334;32;20330;-80
2022/08/09 01:50:58;;;;;;;6.97;5.43;;;;;;;;;;4400378;32;20275;-79
2022/08/09 01:53:24;;;;;;;7.25;4.60;;;;;;;;;;4398972;32;20344;-80
2022/08/09 01:55:52;;;;;;;11.45;4.45;;;;;;;;;;4398966;32;20237;-79
2022/08/09 01:58:19;;;;;;;6.97;4.47;;;;;;;;;;4400381;32;20237;-79
2022/08/09 02:00:45;;;;;;;9.10;4.30;;;;;;;;;;4399994;32;20241;-79
2022/08/09 02:03:13;;;;;;;9.88;4.57;;;;;;;;;;4400525;32;20625;-78
2022/08/09 02:05:43;;;;;;;7.62;4.55;;;;;;;;;;4400482;32;20786;-78
2022/08/09 02:08:13;;;;;;;10.15;4.75;;;;;;;;;;4399971;32;20936;-79
2022/08/09 02:10:40;;;;;;;10.48;4.75;;;;;;;;;;4383365;32;20664;-83
2022/08/09 02:13:08;;;;;;;5.93;3.92;;;;;;;;;;4384881;32;20217;-79
2022/08/09 02:15:41;;;;;;;6.30;4.22;;;;;;;;;;4384544;32;20259;-81
2022/08/09 02:18:07;;;;;;;7.75;3.90;;;;;;;;;;4385270;32;20599;-80
2022/08/09 02:20:39;;;;;;;4.62;3.83;;;;;;;;;;4385748;32;20267;-80
2022/08/09 02:23:24;;;;;;;7.20;4.28;;;;;;;;;;4400064;32;20714;-80
2022/08/09 02:25:51;;;;;;;7.25;4.80;;;;;;;;;;4399997;32;20693;-80
2022/08/09 02:28:27;;;;;;;9.50;4.25;;;;;;;;;;4399961;32;20202;-79
2022/08/09 02:31:00;;;;;;;7.07;3.92;;;;;;;;;;4399908;32;20251;-79
2022/08/09 02:33:29;;;;;;;5.32;4.37;;;;;;;;;;4400099;32;20240;-79
2022/08/09 02:35:58;;;;;;;6.15;4.05;;;;;;;;;;4401120;32;20272;-79
2022/08/09 02:38:31;;;;;;;7.15;4.22;;;;;;;;;;4401482;32;20720;-79
2022/08/09 02:41:05;;;;;;;5.95;4.50;;;;;;;;;;4402964;32;20245;-79
2022/08/09 02:43:33;;;;;;;8.35;4.87;;;;;;;;;;4402965;32;20340;-80
2022/08/09 02:46:01;;;;;;;8.52;4.40;;;;;;;;;;4402482;32;20662;-79
2022/08/09 02:48:30;;;;;;;6.03;3.87;;;;;;;;;;4402937;32;20558;-81
2022/08/09 02:50:59;;;;;;;8.30;4.90;;;;;;;;;;4401440;32;20232;-80
2022/08/09 02:53:32;;;;;;;12.80;5.47;;;;;;;;;;4401620;32;20255;-80
2022/08/09 02:55:59;;;;;;;9.30;4.93;;;;;;;;;;4402939;32;20244;-80
2022/08/09 02:58:30;;;;;;;12.82;5.28;;;;;;;;;;4401353;32;20233;-80
2022/08/09 03:00:57;;;;;;;6.20;4.30;;;;;;;;;;4402696;32;20237;-79
2022/08/09 03:03:23;;;;;;;8.65;4.12;;;;;;;;;;4402800;32;20232;-80
2022/08/09 03:05:51;;;;;;;7.70;4.72;;;;;;;;;;4402474;32;20786;-79
2022/08/09 03:08:19;;;;;;;6.57;4.12;;;;;;;;;;4400137;32;20245;-81
2022/08/09 03:10:45;;;;;;;9.65;4.47;;;;;;;;;;4387400;32;20241;-79
2022/08/09 03:13:16;;;;;;;5.78;4.45;;;;;;;;;;4387291;32;20323;-80
2022/08/09 03:15:42;;;;;;;9.35;5.75;;;;;;;;;;4386228;32;20260;-79
2022/08/09 03:18:09;;;;;;;8.45;4.90;;;;;;;;;;4387411;32;20217;-79
2022/08/09 03:20:37;;;;;;;7.20;5.22;;;;;;;;;;4389866;32;20335;-79
2022/08/09 03:23:04;;;;;;;8.45;4.75;;;;;;;;;;4402137;32;20206;-80
2022/08/09 03:25:31;;;;;;;7.35;4.12;;;;;;;;;;4402289;32;20252;-80
2022/08/09 03:27:58;;;;;;;6.68;4.53;;;;;;;;;;4402092;32;20252;-79
2022/08/09 03:30:26;;;;;;;6.80;4.32;;;;;;;;;;4402117;32;20217;-80
2022/08/09 03:32:53;;;;;;;9.07;5.35;;;;;;;;;;4402299;32;20284;-79
2022/08/09 03:35:20;;;;;;;8.10;5.00;;;;;;;;;;4401471;32;23319;-79
2022/08/09 03:37:45;;;;;;;5.40;4.90;;;;;;;;;;4402128;32;20593;-79
2022/08/09 03:40:11;;;;;;;9.73;5.57;;;;;;;;;;4402179;32;20326;-78
2022/08/09 03:42:37;;;;;;;8.77;4.93;;;;;;;;;;4402526;32;20256;-78
2022/08/09 03:45:05;;;;;;;14.45;4.95;;;;;;;;;;4402073;32;20210;-80
2022/08/09 03:47:30;;;;;;;5.03;3.90;;;;;;;;;;4401830;32;20728;-79
2022/08/09 03:49:57;;;;;;;7.05;4.25;;;;;;;;;;4402368;32;20312;-80
2022/08/09 03:52:25;;;;;;;9.98;4.60;;;;;;;;;;4402170;32;20660;-80
2022/08/09 03:54:53;;;;;;;7.03;4.20;;;;;;;;;;4401962;32;20206;-79
2022/08/09 03:57:19;;;;;;;7.55;4.28;;;;;;;;;;4402059;32;20222;-78
2022/08/09 03:59:45;;;;;;;6.65;4.15;;;;;;;;;;4401624;32;20235;-78
2022/08/09 04:02:11;;;;;;;4.68;3.70;;;;;;;;;;4401900;32;20333;-80
2022/08/09 04:04:37;;;;;;;6.70;3.87;;;;;;;;;;4401988;32;20253;-80
2022/08/09 04:07:03;;;;;;;9.80;4.07;;;;;;;;;;4401719;32;20245;-80
2022/08/09 04:09:28;;;;;;;5.37;3.70;;;;;;;;;;4401229;32;20314;-81
2022/08/09 04:12:08;;;;;;;5.37;4.12;;;;;;;;;;4401462;32;20312;-80
2022/08/09 04:14:34;;;;;;;5.72;4.07;;;;;;;;;;4401198;32;20313;-80
2022/08/09 04:17:00;;;;;;;8.02;3.72;;;;;;;;;;4400815;32;20362;-84
2022/08/09 04:19:26;;;;;;;9.25;3.90;;;;;;;;;;4401480;32;20225;-79
2022/08/09 04:21:51;;;;;;;5.07;3.75;;;;;;;;;;4389408;32;21155;-79
2022/08/09 04:24:17;;;;;;;11.80;3.80;;;;;;;;;;4386516;32;20229;-82
2022/08/09 04:26:42;;;;;;;7.15;4.00;;;;;;;;;;4401193;32;20327;-80
2022/08/09 04:29:08;;;;;;;6.28;4.35;;;;;;;;;;4401331;32;20262;-80
2022/08/09 04:31:35;;;;;;;10.15;4.55;;;;;;;;;;4400357;32;20657;-81
2022/08/09 04:34:01;;;;;;;6.37;4.62;;;;;;;;;;4401605;32;20348;-84
2022/08/09 04:36:29;;;;;;;11.95;4.68;;;;;;;;;;4401519;32;20221;-80
2022/08/09 04:38:57;;;;;;;7.45;4.78;;;;;;;;;;4399830;32;20248;-80
2022/08/09 04:41:23;;;;;;;11.90;4.80;;;;;;;;;;4401080;32;20245;-81
2022/08/09 04:43:51;;;;;;;10.75;4.82;;;;;;;;;;4400577;32;20229;-80
2022/08/09 04:46:17;;;;;;;13.98;4.62;;;;;;;;;;4401931;32;20326;-85
2022/08/09 04:48:42;;;;;;;6.37;4.55;;;;;;;;;;4401401;32;20329;-80
2022/08/09 04:51:08;;;;;;;8.68;5.10;;;;;;;;;;4399906;32;20225;-80
2022/08/09 04:53:34;;;;;;;8.10;5.40;;;;;;;;;;4399292;32;20244;-81
2022/08/09 04:55:59;;;;;;;8.70;5.28;;;;;;;;;;4399356;32;20860;-81
2022/08/09 04:58:28;;;;;;;15.52;4.72;;;;;;;;;;4398360;32;20727;-81
2022/08/09 05:00:54;;;;;;;11.45;5.28;;;;;;;;;;4398372;32;20249;-81
2022/08/09 05:03:21;;;;;;;16.55;5.65;;;;;;;;;;4399350;32;20263;-82
2022/08/09 05:05:47;;;;;;;8.73;5.18;;;;;;;;;;4399060;32;20332;-80
2022/08/09 05:08:12;;;;;;;19.05;6.57;;;;;;;;;;4398980;32;20233;-78
2022/08/09 05:10:38;;;;;;;10.48;4.75;;;;;;;;;;4397356;32;20233;-79
2022/08/09 05:13:04;;;;;;;10.57;5.57;;;;;;;;;;4400557;32;20295;-80
2022/08/09 05:15:31;;;;;;;6.93;4.65;;;;;;;;;;4400404;32;20202;-83
2022/08/09 05:17:56;;;;;;;7.53;5.03;;;;;;;;;;4399575;32;20244;-80
2022/08/09 05:20:24;;;;;;;12.00;4.78;;;;;;;;;;4398433;32;20264;-79
2022/08/09 05:22:52;;;;;;;8.35;5.10;;;;;;;;;;4398245;32;20703;-79
2022/08/09 05:25:21;;;;;;;9.02;5.00;;;;;;;;;;4397253;32;20233;-81
2022/08/09 05:27:47;;;;;;;19.60;4.78;;;;;;;;;;4398334;32;20229;-80
2022/08/09 05:30:13;;;;;;;18.83;5.47;;;;;;;;;;4397969;32;20263;-81
2022/08/09 05:32:40;;;;;;;5.30;3.35;;;;;;;;;;4399716;32;20293;-79
2022/08/09 05:35:07;;;;;;;7.90;3.90;;;;;;;;;;4398800;32;20298;-81
2022/08/09 05:37:33;;;;;;;6.40;4.00;;;;;;;;;;4400457;32;20616;-79
2022/08/09 05:39:58;;;;;;;11.32;3.80;;;;;;;;;;4399256;32;20268;-81
2022/08/09 05:42:25;;;;;;;11.68;5.28;;;;;;;;;;4400593;32;20242;-79
2022/08/09 05:44:52;;;;;;;16.52;6.55;;;;;;;;;;4399450;32;20693;-79
2022/08/09 05:47:21;;;;;;;11.38;6.07;;;;;;;;;;4400587;32;20487;-81
2022/08/09 05:49:47;;;;;;;14.25;6.43;;;;;;;;;;4400577;32;20555;-80
2022/08/09 05:52:13;;;;;;;9.30;5.68;;;;;;;;;;4399347;32;20229;-81
2022/08/09 05:54:39;;;;;;;6.65;5.37;;;;;;;;;;4400274;32;20684;-81
2022/08/09 05:57:05;;;;;;;7.78;4.45;;;;;;;;;;4400041;32;20276;-79
2022/08/09 05:59:31;;;;;;;9.07;4.97;;;;;;;;;;4399714;32;20376;-81
2022/08/09 06:01:57;;;;;;;8.27;3.78;;;;;;;;;;4400577;32;20198;-81
2022/08/09 06:04:23;;;;;;;8.55;3.80;;;;;;;;;;4399720;32;20221;-81
2022/08/09 06:06:48;;;;;;;11.68;4.53;;;;;;;;;;4399774;32;20197;-81
2022/08/09 06:09:13;;;;;;;10.20;4.95;;;;;;;;;;4399653;32;20205;-79
2022/08/09 06:11:40;;;;;;;9.45;3.50;;;;;;;;;;4399450;32;20214;-79
2022/08/09 06:14:06;;;;;;;7.53;4.22;;;;;;;;;;4399974;32;20266;-81
2022/08/09 06:16:32;;;;;;;6.43;4.75;;;;;;;;;;4400330;32;20607;-81
2022/08/09 06:18:58;;;;;;;7.47;4.68;;;;;;;;;;4400170;32;20202;-81
2022/08/09 06:21:23;;;;;;;7.55;4.87;;;;;;;;;;4400080;32;20747;-81
2022/08/09 06:23:51;;;;;;;16.00;5.57;;;;;;;;;;4400353;32;20198;-79
2022/08/09 06:26:18;;;;;;;11.63;6.28;;;;;;;;;;4399792;32;20221;-79
2022/08/09 06:28:43;;;;;;;11.23;7.45;;;;;;;;;;4399812;32;20319;-81
2022/08/09 06:31:09;;;;;;;8.70;6.45;;;;;;;;;;4399358;32;20233;-81
2022/08/09 06:33:36;;;;;;;7.32;4.65;;;;;;;;;;4398620;32;20241;-81
2022/08/09 06:36:01;;;;;;;8.75;5.75;;;;;;;;;;4399756;32;20381;-81
2022/08/09 06:38:27;;;;;;;4.60;4.07;;;;;;;;;;4399994;32;20638;-82
2022/08/09 06:40:52;;;;;;;5.45;4.85;;;;;;;;;;4399897;32;20225;-80
2022/08/09 06:43:20;;;;;;;8.98;5.15;;;;;;;;;;4399673;32;20531;-79
2022/08/09 06:45:46;;;;;;;11.80;5.00;;;;;;;;;;4399993;32;20267;-79
2022/08/09 06:48:11;;;;;;;9.15;5.12;;;;;;;;;;4399053;32;20217;-82
2022/08/09 06:50:37;;;;;;;9.85;5.15;;;;;;;;;;4399720;32;20226;-80
2022/08/09 06:53:03;;;;;;;8.82;4.50;;;;;;;;;;4400111;32;20206;-80
2022/08/09 06:55:31;;;;;;;7.07;3.75;;;;;;;;;;4399674;32;20225;-79
2022/08/09 06:57:58;;;;;;;7.93;4.78;;;;;;;;;;4399430;32;20688;-81
2022/08/09 07:00:24;;;;;;;6.28;4.10;;;;;;;;;;4398551;32;20229;-82
2022/08/09 07:02:51;;;;;;;9.63;3.85;;;;;;;;;;4400130;32;20202;-81
2022/08/09 07:05:17;;;;;;;7.70;4.30;;;;;;;;;;4399768;32;20813;-81
2022/08/09 07:07:43;;;;;;;6.47;4.05;;;;;;;;;;4399903;32;20198;-79
2022/08/09 07:10:13;;;;;;;9.00;4.18;;;;;;;;;;4398234;32;20234;-81
2022/08/09 07:12:40;;;;;;;10.10;3.83;;;;;;;;;;4399663;32;20285;-81
2022/08/09 07:15:07;;;;;;;4.57;3.40;;;;;;;;;;4398587;32;20225;-81
2022/08/09 07:17:34;;;;;;;10.10;4.72;;;;;;;;;;4399005;32;20237;-81
2022/08/09 07:20:00;;;;;;;7.45;3.45;;;;;;;;;;4399562;32;20291;-81
2022/08/09 07:22:26;;;;;;;7.25;3.47;;;;;;;;;;4400082;32;20229;-79
2022/08/09 07:24:51;;;;;;;4.30;3.08;;;;;;;;;;4401040;32;20260;-80
2022/08/09 07:27:16;;;;;;;5.80;3.22;;;;;;;;;;4403007;32;20225;-81
2022/08/09 07:29:42;;;;;;;5.40;3.22;;;;;;;;;;4402043;32;20276;-79
2022/08/09 07:32:07;;;;;;;5.35;3.37;;;;;;;;;;4402589;32;20266;-81
2022/08/09 07:34:34;;;;;;;10.25;4.03;;;;;;;;;;4400984;32;20633;-81
2022/08/09 07:37:01;;;;;;;5.60;3.72;;;;;;;;;;4401154;32;20753;-81
2022/08/09 07:39:26;;;;;;;11.45;3.72;;;;;;;;;;4402257;32;20229;-80
2022/08/09 07:41:52;;;;;;;5.78;3.97;;;;;;;;;;4401209;32;20241;-80
2022/08/09 07:44:19;;;;;;;8.95;4.15;;;;;;;;;;4402247;32;21583;-81
2022/08/09 07:46:46;;;;;;;7.45;3.95;;;;;;;;;;4400682;32;20705;-81
2022/08/09 07:49:12;;;;;;;8.77;4.30;;;;;;;;;;4402282;32;20295;-81
2022/08/09 07:51:38;;;;;;;6.40;3.83;;;;;;;;;;4402101;32;20248;-81
2022/08/09 07:54:04;;;;;;;4.82;3.58;;;;;;;;;;4401717;32;20565;-81
2022/08/09 07:56:29;;;;;;;10.38;4.53;;;;;;;;;;4402090;32;20198;-81
2022/08/09 07:58:55;;;;;;;6.80;4.25;;;;;;;;;;4401750;32;20202;-80
2022/08/09 08:01:21;;;;;;;7.12;4.32;;;;;;;;;;4400780;32;20316;-81
2022/08/09 08:03:47;;;;;;;9.02;3.58;;;;;;;;;;4402187;32;20193;-78
2022/08/09 08:06:13;;;;;;;6.95;3.62;;;;;;;;;;4401519;32;20238;-81
2022/08/09 08:08:38;;;;;;;4.25;3.55;;;;;;;;;;4401629;32;20569;-82
2022/08/09 08:11:05;;;;;;;10.27;3.92;;;;;;;;;;4401052;32;20225;-78
2022/08/09 08:13:33;;;;;;;4.85;3.75;;;;;;;;;;4401255;32;20220;-79
2022/08/09 08:16:00;;;;;;;6.78;3.87;;;;;;;;;;4401648;32;20253;-79
2022/08/09 08:18:26;;;;;;;6.53;4.15;;;;;;;;;;4400936;32;20305;-79
2022/08/09 08:20:51;;;;;;;6.75;4.43;;;;;;;;;;4401386;32;20225;-78
2022/08/09 08:23:17;;;;;;;4.78;3.75;;;;;;;;;;4401517;32;20278;-81
2022/08/09 08:25:47;;;;;;;7.10;3.95;;;;;;;;;;4403925;32;20229;-80
2022/08/09 08:28:13;;;;;;;11.30;4.37;;;;;;;;;;4404781;32;20212;-80
2022/08/09 08:30:40;;;;;;;8.07;4.10;;;;;;;;;;4404527;32;20280;-83
2022/08/09 08:33:06;;;;;;;10.32;4.07;;;;;;;;;;4402345;32;20232;-78
2022/08/09 08:35:31;;;;;;;11.40;6.07;;;;;;;;;;4402485;32;20245;-78
2022/08/09 08:37:57;;;;;;;7.22;4.82;;;;;;;;;;4402006;32;20197;-80
2022/08/09 08:40:23;;;;;;;14.02;7.82;;;;;;;;;;4402327;32;20853;-80
2022/08/09 08:42:48;;;;;;;8.75;4.95;;;;;;;;;;4402228;32;20648;-81
2022/08/09 08:45:16;;;;;;;87.88;44.55;;;;;;;;;;4402042;32;20238;-78
2022/08/09 08:47:44;;;;;;;29.87;15.38;;;;;;;;;;4401998;32;20319;-79
2022/08/09 08:50:14;;;;;;;18.23;10.77;;;;;;;;;;4401706;32;20723;-78
2022/08/09 08:52:40;;;;;;;10.18;6.90;;;;;;;;;;4401984;32;20340;-81
2022/08/09 08:55:06;;;;;;;14.57;6.40;;;;;;;;;;4402475;32;20241;-82
2022/08/09 08:57:34;;;;;;;12.35;7.18;;;;;;;;;;4402453;32;20277;-78
2022/08/09 08:59:59;;;;;;;22.55;12.07;;;;;;;;;;4402293;32;20676;-80
2022/08/09 09:02:28;;;;;;;14.93;7.93;;;;;;;;;;4400956;32;20251;-80
2022/08/09 09:04:55;;;;;;;11.23;6.32;;;;;;;;;;4401561;32;20225;-78
2022/08/09 09:07:23;;;;;;;9.40;5.37;;;;;;;;;;4400488;32;20318;-78
2022/08/09 09:09:50;;;;;;;8.30;5.57;;;;;;;;;;4399918;32;20328;-78
2022/08/09 09:12:18;;;;;;;7.15;4.68;;;;;;;;;;4398636;32;20217;-78
2022/08/09 09:14:45;;;;;;;5.07;3.80;;;;;;;;;;4401592;32;20259;-78
2022/08/09 09:17:11;;;;;;;5.32;2.58;;;;;;;;;;4401582;32;20217;-80
2022/08/09 09:19:37;;;;;;;7.43;3.45;;;;;;;;;;4401060;32;20230;-78
2022/08/09 09:22:12;;;;;;;11.48;3.50;;;;;;;;;;4400305;32;20217;-78
2022/08/09 09:24:43;;;;;;;4.62;3.17;;;;;;;;;;4400615;32;20666;-80
2022/08/09 09:27:16;;;;;;;4.45;2.50;;;;;;;;;;4400913;32;20244;-80
2022/08/09 09:29:44;;;;;;;5.43;3.55;;;;;;;;;;4400168;32;20201;-79
2022/08/09 09:32:10;;;;;;;8.85;4.28;;;;;;;;;;4401065;32;20286;-80
2022/08/09 09:34:38;;;;;;;10.93;4.60;;;;;;;;;;4400746;32;20245;-80
2022/08/09 09:37:07;;;;;;;9.50;3.47;;;;;;;;;;4400656;32;20218;-79
2022/08/09 09:39:33;;;;;;;5.37;3.10;;;;;;;;;;4400669;32;20206;-80
2022/08/09 09:42:02;;;;;;;5.62;3.20;;;;;;;;;;4400379;32;20243;-80
2022/08/09 09:44:33;;;;;;;7.30;2.95;;;;;;;;;;4400763;32;20564;-79
2022/08/09 09:47:10;;;;;;;9.13;3.22;;;;;;;;;;4400750;32;20225;-79
2022/08/09 09:49:36;;;;;;;5.10;3.30;;;;;;;;;;4400502;32;20233;-80
2022/08/09 09:52:08;;;;;;;6.25;3.65;;;;;;;;;;4399988;32;20244;-78
2022/08/09 09:54:47;;;;;;;5.05;2.92;;;;;;;;;;4399474;32;20606;-80
2022/08/09 09:57:17;;;;;;;5.55;3.58;;;;;;;;;;4400229;32;20297;-80
2022/08/09 09:59:46;;;;;;;8.40;3.40;;;;;;;;;;4400454;32;20282;-80
2022/08/09 10:02:12;;;;;;;6.87;3.90;;;;;;;;;;4400437;32;20343;-78
2022/08/09 10:04:39;;;;;;;3.85;3.28;;;;;;;;;;4400356;32;20236;-79
2022/08/09 10:07:20;;;;;;;8.23;3.62;;;;;;;;;;4399930;32;20230;-79
2022/08/09 10:09:47;;;;;;;4.40;3.50;;;;;;;;;;4400138;32;20232;-79
2022/08/09 10:12:26;;;;;;;6.12;3.70;;;;;;;;;;4400258;32;20248;-79
2022/08/09 10:15:06;;;;;;;6.28;3.03;;;;;;;;;;4400518;32;20339;-79
2022/08/09 10:17:34;;;;;;;8.95;3.45;;;;;;;;;;4399857;32;20315;-79
2022/08/09 10:20:19;;;;;;;6.97;3.50;;;;;;;;;;4399849;32;20240;-79
2022/08/09 10:22:47;;;;;;;6.55;3.70;;;;;;;;;;4385059;32;20768;-79
2022/08/09 10:25:15;;;;;;;5.87;3.30;;;;;;;;;;4385375;32;20296;-78
2022/08/09 10:27:43;;;;;;;12.25;3.70;;;;;;;;;;4384767;32;20256;-79
2022/08/09 10:30:10;;;;;;;6.62;2.83;;;;;;;;;;4385173;32;20715;-79
2022/08/09 10:32:36;;;;;;;5.57;3.30;;;;;;;;;;4385293;32;20342;-78
2022/08/09 10:35:04;;;;;;;7.53;3.62;;;;;;;;;;4389116;32;20295;-79
2022/08/09 10:37:30;;;;;;;7.18;2.72;;;;;;;;;;4400199;32;20222;-82
2022/08/09 10:39:58;;;;;;;6.22;2.97;;;;;;;;;;4398299;32;20237;-77
2022/08/09 10:42:24;;;;;;;5.93;3.15;;;;;;;;;;4399484;32;20378;-77
2022/08/09 10:45:02;;;;;;;6.03;3.28;;;;;;;;;;4400466;32;20194;-79
2022/08/09 10:47:48;;;;;;;8.27;3.33;;;;;;;;;;4400248;32;20244;-79
2022/08/09 10:50:14;;;;;;;5.87;3.05;;;;;;;;;;4400293;32;20205;-78
2022/08/09 10:53:18;;;;;;;7.93;3.00;;;;;;;;;;4400061;32;20601;-78
2022/08/09 10:55:43;;;;;;;4.75;2.58;;;;;;;;;;4399809;32;20638;-77
2022/08/09 10:58:30;;;;;;;4.70;2.47;;;;;;;;;;4400712;32;20296;-78
2022/08/09 11:00:56;;;;;;;8.05;2.90;;;;;;;;;;4403218;32;20220;-77
2022/08/09 11:03:28;;;;;;;10.38;2.25;;;;;;;;;;4402904;32;20224;-76
2022/08/09 11:06:14;;;;;;;15.48;3.00;;;;;;;;;;4403529;32;20202;-78
2022/08/09 11:08:42;;;;;;;17.65;4.12;;;;;;;;;;4402820;32;20277;-77
2022/08/09 11:11:08;;;;;;;10.43;3.00;;;;;;;;;;4401105;32;20768;-76
2022/08/09 11:13:33;;;;;;;8.88;2.70;;;;;;;;;;4402712;32;20334;-77
2022/08/09 11:16:34;;;;;;;7.90;2.40;;;;;;;;;;4402712;32;20236;-78
2022/08/09 11:19:00;;;;;;;7.00;2.10;;;;;;;;;;4402777;32;20650;-77
2022/08/09 11:21:56;;;;;;;5.47;2.95;;;;;;;;;;4402574;32;20252;-80
2022/08/09 11:24:22;;;;;;;5.55;2.42;;;;;;;;;;4403052;32;20728;-78
2022/08/09 11:26:49;;;;;;;2.92;2.08;;;;;;;;;;4402429;32;20258;-77
2022/08/09 11:29:53;;;;;;;8.60;2.40;;;;;;;;;;4400982;32;20226;-77
2022/08/09 11:32:52;;;;;;;5.05;2.00;;;;;;;;;;4402770;32;20249;-77
2022/08/09 11:35:26;;;;;;;4.57;2.00;;;;;;;;;;4402861;32;20213;-78
2022/08/09 11:37:55;;;;;;;4.45;1.95;;;;;;;;;;4402654;32;20255;-78
2022/08/09 11:40:23;;;;;;;6.55;1.75;;;;;;;;;;4402508;32;20244;-77
2022/08/09 11:42:52;;;;;;;6.45;1.95;;;;;;;;;;4402176;32;20280;-77
2022/08/09 11:45:37;;;;;;;2.83;1.50;;;;;;;;;;4402633;32;20504;-79
2022/08/09 11:48:23;;;;;;;4.85;1.55;;;;;;;;;;4402479;32;20259;-78
2022/08/09 11:51:00;;;;;;;2.87;1.70;;;;;;;;;;4402888;32;20222;-77
2022/08/09 11:53:25;;;;;;;2.08;1.73;;;;;;;;;;4402991;32;20202;-78
2022/08/09 11:55:54;;;;;;;2.53;1.65;;;;;;;;;;4402581;32;20310;-77
2022/08/09 11:58:23;;;;;;;5.28;2.00;;;;;;;;;;4402685;32;20221;-77
2022/08/09 12:00:53;;;;;;;3.47;2.50;;;;;;;;;;4402434;32;20291;-76
2022/08/09 12:03:22;;;;;;;7.72;1.83;;;;;;;;;;4402298;32;20264;-76
2022/08/09 12:05:52;;;;;;;5.22;1.85;;;;;;;;;;4402303;32;20221;-76
2022/08/09 12:08:18;;;;;;;5.25;1.52;;;;;;;;;;4400420;32;20284;-77
2022/08/09 12:10:56;;;;;;;3.30;1.70;;;;;;;;;;4402406;32;20238;-77
2022/08/09 12:13:44;;;;;;;3.58;1.70;;;;;;;;;;4401249;32;20255;-78
2022/08/09 12:16:27;;;;;;;2.72;1.80;;;;;;;;;;4401831;32;20213;-79
2022/08/09 12:18:53;;;;;;;3.40;1.45;;;;;;;;;;4402236;32;20304;-79
2022/08/09 12:21:41;;;;;;;5.87;1.73;;;;;;;;;;4402110;32;20665;-76
2022/08/09 12:24:09;;;;;;;3.80;1.67;;;;;;;;;;4402294;32;20332;-75
2022/08/09 12:26:41;;;;;;;7.97;1.90;;;;;;;;;;4401794;32;20261;-75
2022/08/09 12:29:07;;;;;;;3.60;1.60;;;;;;;;;;4401803;32;20619;-77
2022/08/09 12:31:34;;;;;;;6.45;2.00;;;;;;;;;;4402186;32;20206;-77
2022/08/09 12:34:00;;;;;;;1.90;1.45;;;;;;;;;;4401776;32;20256;-76
2022/08/09 12:36:25;;;;;;;3.20;2.28;;;;;;;;;;4401832;32;20217;-77
2022/08/09 12:38:53;;;;;;;4.78;2.03;;;;;;;;;;4401729;32;20296;-78
2022/08/09 12:41:30;;;;;;;6.28;1.95;;;;;;;;;;4401773;32;20321;-81
2022/08/09 12:43:59;;;;;;;3.65;2.17;;;;;;;;;;4401998;32;20245;-80
2022/08/09 12:46:25;;;;;;;4.12;1.90;;;;;;;;;;4402099;32;20201;-78
2022/08/09 12:48:54;;;;;;;2.50;1.83;;;;;;;;;;4402064;32;20396;-82
2022/08/09 12:51:22;;;;;;;2.58;2.05;;;;;;;;;;4401912;32;20323;-81
2022/08/09 12:53:58;;;;;;;2.80;1.92;;;;;;;;;;4402366;32;20217;-82
2022/08/09 12:56:23;;;;;;;9.25;1.83;;;;;;;;;;4401716;32;20215;-81
2022/08/09 12:59:08;;;;;;;4.57;2.05;;;;;;;;;;4402141;32;20225;-81
2022/08/09 13:01:34;;;;;;;7.43;2.17;;;;;;;;;;4401872;32;20284;-81
2022/08/09 13:04:06;;;;;;;4.00;2.08;;;;;;;;;;4401160;32;20295;-81
2022/08/09 13:06:41;;;;;;;6.00;2.30;;;;;;;;;;4401697;32;20349;-84
2022/08/09 13:09:21;;;;;;;3.03;1.80;;;;;;;;;;4400768;32;20306;-81
2022/08/09 13:11:50;;;;;;;16.90;2.92;;;;;;;;;;4401526;32;20259;-82
2022/08/09 13:14:24;;;;;;;7.93;2.20;;;;;;;;;;4400290;32;20233;-75
2022/08/09 13:16:50;;;;;;;1.80;1.50;;;;;;;;;;4401902;32;20206;-77
2022/08/09 13:19:37;;;;;;;4.37;2.15;;;;;;;;;;4401508;32;20245;-76
2022/08/09 13:22:09;;;;;;;5.30;1.98;;;;;;;;;;4400901;32;20206;-76
2022/08/09 13:24:34;;;;;;;9.05;1.77;;;;;;;;;;4401397;32;20248;-76
2022/08/09 13:27:00;;;;;;;14.05;2.35;;;;;;;;;;4400774;32;20288;-76
2022/08/09 13:29:25;;;;;;;10.15;1.83;;;;;;;;;;4401326;32;20822;-76
2022/08/09 13:32:07;;;;;;;8.23;2.08;;;;;;;;;;4401356;32;20714;-76
2022/08/09 13:34:38;;;;;;;11.50;1.60;;;;;;;;;;4401303;32;20221;-77
2022/08/09 13:37:05;;;;;;;11.55;2.00;;;;;;;;;;4401094;32;20201;-77
2022/08/09 13:39:34;;;;;;;4.80;1.92;;;;;;;;;;4400722;32;20313;-76
2022/08/09 13:42:11;;;;;;;10.32;2.30;;;;;;;;;;4400764;32;20275;-75
2022/08/09 13:44:37;;;;;;;3.50;1.80;;;;;;;;;;4401091;32;20612;-77
2022/08/09 13:47:08;;;;;;;4.12;2.00;;;;;;;;;;4401064;32;20237;-77
2022/08/09 13:49:36;;;;;;;4.20;1.92;;;;;;;;;;4400901;32;20274;-77
2022/08/09 13:52:03;;;;;;;6.28;2.03;;;;;;;;;;4400634;32;20308;-76
2022/08/09 13:54:28;;;;;;;3.67;1.87;;;;;;;;;;4400412;32;20691;-76
2022/08/09 13:56:53;;;;;;;5.70;1.55;;;;;;;;;;4401083;32;20189;-78
2022/08/09 13:59:19;;;;;;;6.07;2.03;;;;;;;;;;4400642;32;20221;-79
2022/08/09 14:01:44;;;;;;;4.07;2.03;;;;;;;;;;4400927;32;20202;-80
2022/08/09 14:04:10;;;;;;;5.65;2.35;;;;;;;;;;4400696;32;20268;-80
2022/08/09 14:06:35;;;;;;;4.40;2.00;;;;;;;;;;4400723;32;20197;-78
2022/08/09 14:09:01;;;;;;;7.68;2.53;;;;;;;;;;4400613;32;20658;-78
2022/08/09 14:11:27;;;;;;;3.90;2.42;;;;;;;;;;4400151;32;20894;-79
2022/08/09 14:13:52;;;;;;;3.90;2.65;;;;;;;;;;4400652;32;20272;-78
2022/08/09 14:16:23;;;;;;;5.72;2.62;;;;;;;;;;4400883;32;20290;-79
2022/08/09 14:18:50;;;;;;;5.35;2.45;;;;;;;;;;4400897;32;20328;-79
2022/08/09 14:21:20;;;;;;;7.12;2.83;;;;;;;;;;4400497;32;20267;-83
2022/08/09 14:23:47;;;;;;;4.55;2.58;;;;;;;;;;4400576;32;20658;-79
2022/08/09 14:26:14;;;;;;;4.20;2.67;;;;;;;;;;4400384;32;20741;-78
2022/08/09 14:28:41;;;;;;;6.40;2.65;;;;;;;;;;4400345;32;20296;-78
2022/08/09 14:31:08;;;;;;;4.75;2.00;;;;;;;;;;4400993;32;20210;-80
2022/08/09 14:33:33;;;;;;;5.80;2.62;;;;;;;;;;4403883;32;20280;-79
2022/08/09 14:36:00;;;;;;;9.77;3.17;;;;;;;;;;4403613;32;20205;-79
2022/08/09 14:38:27;;;;;;;7.90;3.50;;;;;;;;;;4404034;32;20198;-79
2022/08/09 14:40:52;;;;;;;4.22;2.58;;;;;;;;;;4403664;32;20278;-79
2022/08/09 14:43:19;;;;;;;4.47;2.33;;;;;;;;;;4403405;32;20352;-80
2022/08/09 14:45:45;;;;;;;13.82;3.47;;;;;;;;;;4403949;32;20205;-79
2022/08/09 14:48:10;;;;;;;8.55;3.00;;;;;;;;;;4403351;32;20467;-77
2022/08/09 14:50:36;;;;;;;7.50;2.50;;;;;;;;;;4403576;32;20228;-78